Terminal Aerodrome Forecast
Issued by NWS Amarillo, TX

Home | Current Version | Previous Version | Text Only | Print | Product List | Glossary On
Versions: 1 2 3 4 5 6 7 8 9 10 11 12
000
FTUS44 KAMA 211700
TAFGUY
TAF
KGUY 211720Z 2118/2218 19016G24KT P6SM SCT100
     FM220100 19008KT P6SM BKN100
     FM221400 21015KT P6SM BKN080=

USA.gov is the U.S. government's official web portal to all federal, state and local government web resources and services.